sensor_id;sensor_type;location;lat;lon;timestamp;temperature;humidity
22540;DHT22;11436;50.860;4.334;2022-08-19T06:16:20;18.50;99.90
22540;DHT22;11436;50.860;4.334;2022-08-19T06:18:50;18.90;99.90
22540;DHT22;11436;50.860;4.334;2022-08-19T06:21:21;18.90;99.90
22540;DHT22;11436;50.860;4.334;2022-08-19T06:23:48;18.90;99.90
22540;DHT22;11436;50.860;4.334;2022-08-19T06:26:15;18.90;99.90
22540;DHT22;11436;50.860;4.334;2022-08-19T06:28:42;18.80;99.90
22540;DHT22;11436;50.860;4.334;2022-08-19T06:31:15;18.90;99.90
22540;DHT22;11436;50.860;4.334;2022-08-19T06:33:43;18.90;99.90
22540;DHT22;11436;50.860;4.334;2022-08-19T06:36:25;19.00;99.90
22540;DHT22;11436;50.860;4.334;2022-08-19T06:38:55;19.10;99.90
22540;DHT22;11436;50.860;4.334;2022-08-19T06:41:25;19.20;99.90
22540;DHT22;11436;50.860;4.334;2022-08-19T06:43:51;19.30;99.90
22540;DHT22;11436;50.860;4.334;2022-08-19T06:46:18;19.30;99.90
22540;DHT22;11436;50.860;4.334;2022-08-19T06:48:47;19.40;99.90
22540;DHT22;11436;50.860;4.334;2022-08-19T06:51:17;19.60;99.90
22540;DHT22;11436;50.860;4.334;2022-08-19T06:53:46;19.60;99.90
22540;DHT22;11436;50.860;4.334;2022-08-19T06:56:18;19.70;99.90
22540;DHT22;11436;50.860;4.334;2022-08-19T06:58:44;19.80;99.90
22540;DHT22;11436;50.860;4.334;2022-08-19T07:01:10;19.70;99.90
22540;DHT22;11436;50.860;4.334;2022-08-19T07:18:12;19.40;99.90
22540;DHT22;11436;50.860;4.334;2022-08-19T07:20:38;19.40;99.90
22540;DHT22;11436;50.860;4.334;2022-08-19T07:23:04;19.70;99.90
22540;DHT22;11436;50.860;4.334;2022-08-19T07:25:30;19.70;99.90
22540;DHT22;11436;50.860;4.334;2022-08-19T07:27:56;19.60;99.90
22540;DHT22;11436;50.860;4.334;2022-08-19T07:30:21;19.70;99.90
22540;DHT22;11436;50.860;4.334;2022-08-19T07:32:48;19.80;99.90
22540;DHT22;11436;50.860;4.334;2022-08-19T07:35:16;19.90;99.90
22540;DHT22;11436;50.860;4.334;2022-08-19T07:37:45;20.00;99.90
22540;DHT22;11436;50.860;4.334;2022-08-19T07:40:12;20.10;99.90
22540;DHT22;11436;50.860;4.334;2022-08-19T07:42:38;20.30;99.90
22540;DHT22;11436;50.860;4.334;2022-08-19T07:45:05;20.40;99.90
22540;DHT22;11436;50.860;4.334;2022-08-19T07:47:31;20.40;99.90
22540;DHT22;11436;50.860;4.334;2022-08-19T07:49:57;20.40;99.90
22540;DHT22;11436;50.860;4.334;2022-08-19T07:52:23;20.50;99.90
22540;DHT22;11436;50.860;4.334;2022-08-19T07:54:48;20.60;99.90
22540;DHT22;11436;50.860;4.334;2022-08-19T07:57:15;20.70;99.90
22540;DHT22;11436;50.860;4.334;2022-08-19T07:59:41;20.50;99.90
22540;DHT22;11436;50.860;4.334;2022-08-19T08:02:08;20.60;99.90
22540;DHT22;11436;50.860;4.334;2022-08-19T08:04:34;20.70;99.90
22540;DHT22;11436;50.860;4.334;2022-08-19T08:07:18;20.80;99.90
22540;DHT22;11436;50.860;4.334;2022-08-19T08:10:05;21.00;99.90
22540;DHT22;11436;50.860;4.334;2022-08-19T08:12:36;20.80;99.90
22540;DHT22;11436;50.860;4.334;2022-08-19T08:15:11;20.90;99.90
22540;DHT22;11436;50.860;4.334;2022-08-19T08:17:41;21.00;99.90
22540;DHT22;11436;50.860;4.334;2022-08-19T08:20:07;20.90;99.90
22540;DHT22;11436;50.860;4.334;2022-08-19T08:22:33;20.90;99.90
22540;DHT22;11436;50.860;4.334;2022-08-19T08:25:22;20.80;99.90
22540;DHT22;11436;50.860;4.334;2022-08-19T08:27:49;20.70;99.90
22540;DHT22;11436;50.860;4.334;2022-08-19T08:30:21;20.70;99.90
22540;DHT22;11436;50.860;4.334;2022-08-19T08:32:47;20.80;99.90
22540;DHT22;11436;50.860;4.334;2022-08-19T08:35:18;20.80;99.90
22540;DHT22;11436;50.860;4.334;2022-08-19T08:37:52;20.80;99.90
22540;DHT22;11436;50.860;4.334;2022-08-19T08:43:44;20.90;99.90
22540;DHT22;11436;50.860;4.334;2022-08-19T08:49:40;21.00;99.90
22540;DHT22;11436;50.860;4.334;2022-08-19T09:38:11;21.70;99.90
22540;DHT22;11436;50.860;4.334;2022-08-19T09:40:37;21.70;99.90
22540;DHT22;11436;50.860;4.334;2022-08-19T09:43:04;21.80;99.90
22540;DHT22;11436;50.860;4.334;2022-08-19T09:45:30;21.60;99.90
22540;DHT22;11436;50.860;4.334;2022-08-19T09:47:56;21.60;99.90
22540;DHT22;11436;50.860;4.334;2022-08-19T09:50:24;21.80;99.90
22540;DHT22;11436;50.860;4.334;2022-08-19T09:52:50;21.90;99.90
22540;DHT22;11436;50.860;4.334;2022-08-19T09:55:17;22.00;99.90
22540;DHT22;11436;50.860;4.334;2022-08-19T09:57:43;22.20;99.90
22540;DHT22;11436;50.860;4.334;2022-08-19T10:00:09;22.20;99.90
22540;DHT22;11436;50.860;4.334;2022-08-19T10:02:36;22.20;99.90
22540;DHT22;11436;50.860;4.334;2022-08-19T10:05:02;21.90;99.90
22540;DHT22;11436;50.860;4.334;2022-08-19T10:07:46;21.70;99.90
22540;DHT22;11436;50.860;4.334;2022-08-19T10:10:12;21.70;99.90
22540;DHT22;11436;50.860;4.334;2022-08-19T10:12:38;21.70;99.90
22540;DHT22;11436;50.860;4.334;2022-08-19T10:15:05;21.70;99.90
22540;DHT22;11436;50.860;4.334;2022-08-19T10:17:31;21.60;99.90
22540;DHT22;11436;50.860;4.334;2022-08-19T10:19:59;21.70;99.90
22540;DHT22;11436;50.860;4.334;2022-08-19T10:22:25;21.60;99.90
22540;DHT22;11436;50.860;4.334;2022-08-19T10:24:51;21.50;99.90
22540;DHT22;11436;50.860;4.334;2022-08-19T10:27:17;21.50;99.90
22540;DHT22;11436;50.860;4.334;2022-08-19T10:29:43;21.60;99.90
22540;DHT22;11436;50.860;4.334;2022-08-19T10:32:09;21.70;99.90
22540;DHT22;11436;50.860;4.334;2022-08-19T10:34:37;21.70;99.90
22540;DHT22;11436;50.860;4.334;2022-08-19T10:37:04;21.90;99.90
22540;DHT22;11436;50.860;4.334;2022-08-19T10:39:33;22.10;99.90
22540;DHT22;11436;50.860;4.334;2022-08-19T10:42:03;22.20;99.90
22540;DHT22;11436;50.860;4.334;2022-08-19T10:44:29;22.20;99.90
22540;DHT22;11436;50.860;4.334;2022-08-19T10:46:55;22.30;99.90
22540;DHT22;11436;50.860;4.334;2022-08-19T10:49:21;22.20;99.90
22540;DHT22;11436;50.860;4.334;2022-08-19T10:51:48;22.20;99.90
22540;DHT22;11436;50.860;4.334;2022-08-19T10:54:33;21.90;99.90
22540;DHT22;11436;50.860;4.334;2022-08-19T10:57:17;21.50;99.90
22540;DHT22;11436;50.860;4.334;2022-08-19T10:59:43;21.50;99.90
22540;DHT22;11436;50.860;4.334;2022-08-19T11:02:10;21.50;99.90
22540;DHT22;11436;50.860;4.334;2022-08-19T11:04:38;21.60;99.90
22540;DHT22;11436;50.860;4.334;2022-08-19T11:07:05;21.50;99.90
22540;DHT22;11436;50.860;4.334;2022-08-19T11:09:31;21.70;99.90
22540;DHT22;11436;50.860;4.334;2022-08-19T11:11:57;21.70;99.90
22540;DHT22;11436;50.860;4.334;2022-08-19T11:14:23;21.80;99.90
22540;DHT22;11436;50.860;4.334;2022-08-19T11:16:51;22.10;99.90
22540;DHT22;11436;50.860;4.334;2022-08-19T11:19:18;22.50;99.90
22540;DHT22;11436;50.860;4.334;2022-08-19T11:21:47;23.00;99.90
22540;DHT22;11436;50.860;4.334;2022-08-19T11:24:24;23.00;99.90
22540;DHT22;11436;50.860;4.334;2022-08-19T11:26:52;22.70;99.90
22540;DHT22;11436;50.860;4.334;2022-08-19T11:29:20;22.80;99.90
22540;DHT22;11436;50.860;4.334;2022-08-19T11:31:49;23.00;99.90
22540;DHT22;11436;50.860;4.334;2022-08-19T11:34:19;22.60;99.90
22540;DHT22;11436;50.860;4.334;2022-08-19T11:36:46;22.30;99.90
22540;DHT22;11436;50.860;4.334;2022-08-19T11:39:16;22.40;99.90
22540;DHT22;11436;50.860;4.334;2022-08-19T11:41:43;22.60;99.90
22540;DHT22;11436;50.860;4.334;2022-08-19T11:44:08;22.80;99.90
22540;DHT22;11436;50.860;4.334;2022-08-19T11:46:36;22.80;99.90
22540;DHT22;11436;50.860;4.334;2022-08-19T11:49:04;23.20;99.90
22540;DHT22;11436;50.860;4.334;2022-08-19T11:51:31;23.40;99.90
22540;DHT22;11436;50.860;4.334;2022-08-19T11:53:58;23.80;99.90
22540;DHT22;11436;50.860;4.334;2022-08-19T11:56:26;23.60;99.90
22540;DHT22;11436;50.860;4.334;2022-08-19T11:58:53;23.80;99.90
22540;DHT22;11436;50.860;4.334;2022-08-19T12:01:21;24.10;99.90
22540;DHT22;11436;50.860;4.334;2022-08-19T12:03:49;24.50;99.90
22540;DHT22;11436;50.860;4.334;2022-08-19T12:06:19;24.70;99.90
22540;DHT22;11436;50.860;4.334;2022-08-19T12:08:46;25.00;99.90
22540;DHT22;11436;50.860;4.334;2022-08-19T12:11:13;24.30;99.90
22540;DHT22;11436;50.860;4.334;2022-08-19T12:13:39;24.20;99.90
22540;DHT22;11436;50.860;4.334;2022-08-19T12:16:15;24.40;99.90
22540;DHT22;11436;50.860;4.334;2022-08-19T12:18:43;25.10;99.90
22540;DHT22;11436;50.860;4.334;2022-08-19T12:21:17;25.20;99.90
22540;DHT22;11436;50.860;4.334;2022-08-19T12:23:44;25.10;99.90
22540;DHT22;11436;50.860;4.334;2022-08-19T12:26:13;24.90;99.90
22540;DHT22;11436;50.860;4.334;2022-08-19T12:28:39;24.80;99.90
22540;DHT22;11436;50.860;4.334;2022-08-19T12:31:05;24.50;99.90
22540;DHT22;11436;50.860;4.334;2022-08-19T12:33:31;24.40;99.90
22540;DHT22;11436;50.860;4.334;2022-08-19T12:36:02;24.40;99.90
22540;DHT22;11436;50.860;4.334;2022-08-19T12:38:29;24.30;99.90
22540;DHT22;11436;50.860;4.334;2022-08-19T12:40:55;24.30;99.90
22540;DHT22;11436;50.860;4.334;2022-08-19T12:44:26;24.20;99.90
22540;DHT22;11436;50.860;4.334;2022-08-19T12:46:52;24.50;99.90
22540;DHT22;11436;50.860;4.334;2022-08-19T12:49:17;24.90;99.90
22540;DHT22;11436;50.860;4.334;2022-08-19T12:51:43;25.20;99.90
22540;DHT22;11436;50.860;4.334;2022-08-19T12:54:09;25.20;99.90
22540;DHT22;11436;50.860;4.334;2022-08-19T12:56:36;25.20;99.90
22540;DHT22;11436;50.860;4.334;2022-08-19T12:59:03;24.90;99.90
22540;DHT22;11436;50.860;4.334;2022-08-19T13:01:29;24.80;99.90
22540;DHT22;11436;50.860;4.334;2022-08-19T13:03:59;25.30;99.90
22540;DHT22;11436;50.860;4.334;2022-08-19T13:06:25;25.60;99.90
22540;DHT22;11436;50.860;4.334;2022-08-19T13:08:51;25.50;99.90
22540;DHT22;11436;50.860;4.334;2022-08-19T13:11:19;25.20;99.90
22540;DHT22;11436;50.860;4.334;2022-08-19T13:13:47;25.40;99.90
22540;DHT22;11436;50.860;4.334;2022-08-19T13:16:14;25.30;99.90
22540;DHT22;11436;50.860;4.334;2022-08-19T13:18:41;25.10;99.90
22540;DHT22;11436;50.860;4.334;2022-08-19T13:21:09;24.90;99.90
22540;DHT22;11436;50.860;4.334;2022-08-19T13:23:37;24.50;99.90
22540;DHT22;11436;50.860;4.334;2022-08-19T13:26:05;24.90;99.90
22540;DHT22;11436;50.860;4.334;2022-08-19T13:28:31;24.90;99.90
22540;DHT22;11436;50.860;4.334;2022-08-19T13:31:17;24.70;99.90
22540;DHT22;11436;50.860;4.334;2022-08-19T13:34:02;24.80;99.90
22540;DHT22;11436;50.860;4.334;2022-08-19T13:36:28;25.00;99.90
22540;DHT22;11436;50.860;4.334;2022-08-19T13:38:54;25.60;99.90
22540;DHT22;11436;50.860;4.334;2022-08-19T13:41:22;26.10;99.90
22540;DHT22;11436;50.860;4.334;2022-08-19T13:43:47;26.20;99.90
22540;DHT22;11436;50.860;4.334;2022-08-19T13:46:14;25.60;99.90
22540;DHT22;11436;50.860;4.334;2022-08-19T13:48:41;25.40;99.90
22540;DHT22;11436;50.860;4.334;2022-08-19T13:51:08;25.10;99.90
22540;DHT22;11436;50.860;4.334;2022-08-19T13:53:38;24.90;99.90
22540;DHT22;11436;50.860;4.334;2022-08-19T13:56:09;24.70;99.90
22540;DHT22;11436;50.860;4.334;2022-08-19T13:58:36;24.40;99.90
22540;DHT22;11436;50.860;4.334;2022-08-19T14:01:03;24.50;99.90
22540;DHT22;11436;50.860;4.334;2022-08-19T14:03:29;24.40;99.90
22540;DHT22;11436;50.860;4.334;2022-08-19T14:05:55;24.10;99.90
22540;DHT22;11436;50.860;4.334;2022-08-19T14:08:22;23.90;99.90
22540;DHT22;11436;50.860;4.334;2022-08-19T14:10:50;23.60;99.90
22540;DHT22;11436;50.860;4.334;2022-08-19T14:13:19;23.20;99.90
22540;DHT22;11436;50.860;4.334;2022-08-19T14:15:46;22.90;99.90
22540;DHT22;11436;50.860;4.334;2022-08-19T14:18:14;22.60;99.90
22540;DHT22;11436;50.860;4.334;2022-08-19T14:20:40;22.30;99.90
22540;DHT22;11436;50.860;4.334;2022-08-19T14:23:06;22.20;99.90
22540;DHT22;11436;50.860;4.334;2022-08-19T14:25:32;22.20;99.90
22540;DHT22;11436;50.860;4.334;2022-08-19T14:27:59;22.30;99.90
22540;DHT22;11436;50.860;4.334;2022-08-19T14:30:36;22.30;99.90
22540;DHT22;11436;50.860;4.334;2022-08-19T14:33:04;22.40;99.90
22540;DHT22;11436;50.860;4.334;2022-08-19T14:35:32;22.40;99.90
22540;DHT22;11436;50.860;4.334;2022-08-19T14:38:02;22.40;99.90
22540;DHT22;11436;50.860;4.334;2022-08-19T14:40:29;22.40;99.90
22540;DHT22;11436;50.860;4.334;2022-08-19T14:42:58;22.30;99.90
22540;DHT22;11436;50.860;4.334;2022-08-19T14:45:28;22.20;99.90
22540;DHT22;11436;50.860;4.334;2022-08-19T14:47:55;21.90;99.90
22540;DHT22;11436;50.860;4.334;2022-08-19T14:50:22;21.80;99.90
22540;DHT22;11436;50.860;4.334;2022-08-19T14:52:49;22.10;99.90
22540;DHT22;11436;50.860;4.334;2022-08-19T14:55:17;22.30;99.90
22540;DHT22;11436;50.860;4.334;2022-08-19T14:57:43;22.60;99.90
22540;DHT22;11436;50.860;4.334;2022-08-19T15:00:10;23.00;99.90
22540;DHT22;11436;50.860;4.334;2022-08-19T15:02:39;23.70;99.90
22540;DHT22;11436;50.860;4.334;2022-08-19T15:05:05;24.90;99.90
22540;DHT22;11436;50.860;4.334;2022-08-19T15:07:32;26.30;99.90
22540;DHT22;11436;50.860;4.334;2022-08-19T15:09:59;26.70;99.90
22540;DHT22;11436;50.860;4.334;2022-08-19T15:12:24;27.20;99.90
22540;DHT22;11436;50.860;4.334;2022-08-19T15:14:51;27.20;99.90
22540;DHT22;11436;50.860;4.334;2022-08-19T15:17:17;27.00;99.90
22540;DHT22;11436;50.860;4.334;2022-08-19T15:19:44;26.50;99.90
22540;DHT22;11436;50.860;4.334;2022-08-19T15:22:10;26.30;99.90
22540;DHT22;11436;50.860;4.334;2022-08-19T15:24:36;26.40;99.90
22540;DHT22;11436;50.860;4.334;2022-08-19T15:27:03;26.20;99.90
22540;DHT22;11436;50.860;4.334;2022-08-19T15:29:31;25.90;99.90
22540;DHT22;11436;50.860;4.334;2022-08-19T15:31:58;25.50;99.90
22540;DHT22;11436;50.860;4.334;2022-08-19T15:34:25;25.30;99.90
22540;DHT22;11436;50.860;4.334;2022-08-19T15:36:54;25.10;99.90
22540;DHT22;11436;50.860;4.334;2022-08-19T15:39:20;24.80;99.90
22540;DHT22;11436;50.860;4.334;2022-08-19T15:41:46;24.50;99.90
22540;DHT22;11436;50.860;4.334;2022-08-19T15:44:14;24.50;99.90
22540;DHT22;11436;50.860;4.334;2022-08-19T15:46:42;24.20;99.90
22540;DHT22;11436;50.860;4.334;2022-08-19T15:49:10;24.00;99.90
22540;DHT22;11436;50.860;4.334;2022-08-19T15:51:39;24.00;99.90
22540;DHT22;11436;50.860;4.334;2022-08-19T15:54:09;23.90;99.90
22540;DHT22;11436;50.860;4.334;2022-08-19T15:56:36;23.50;99.90
22540;DHT22;11436;50.860;4.334;2022-08-19T15:59:32;23.10;99.90
22540;DHT22;11436;50.860;4.334;2022-08-19T16:02:19;22.90;99.90
22540;DHT22;11436;50.860;4.334;2022-08-19T16:05:07;22.70;99.90
22540;DHT22;11436;50.860;4.334;2022-08-19T16:07:52;22.70;99.90
22540;DHT22;11436;50.860;4.334;2022-08-19T16:10:18;22.50;99.90
22540;DHT22;11436;50.860;4.334;2022-08-19T16:12:45;22.30;99.90
22540;DHT22;11436;50.860;4.334;2022-08-19T16:15:11;22.30;99.90
22540;DHT22;11436;50.860;4.334;2022-08-19T16:17:39;22.30;99.90
22540;DHT22;11436;50.860;4.334;2022-08-19T16:20:06;22.20;99.90
22540;DHT22;11436;50.860;4.334;2022-08-19T16:22:36;22.20;99.90
22540;DHT22;11436;50.860;4.334;2022-08-19T16:25:03;22.20;99.90
22540;DHT22;11436;50.860;4.334;2022-08-19T16:27:30;22.10;99.90
22540;DHT22;11436;50.860;4.334;2022-08-19T16:29:56;22.20;99.90
22540;DHT22;11436;50.860;4.334;2022-08-19T16:32:22;22.20;99.90
22540;DHT22;11436;50.860;4.334;2022-08-19T16:34:48;22.30;99.90
22540;DHT22;11436;50.860;4.334;2022-08-19T16:37:16;22.30;99.90
22540;DHT22;11436;50.860;4.334;2022-08-19T16:39:42;22.30;99.90
22540;DHT22;11436;50.860;4.334;2022-08-19T16:42:10;22.30;99.90
22540;DHT22;11436;50.860;4.334;2022-08-19T16:44:40;22.40;99.90
22540;DHT22;11436;50.860;4.334;2022-08-19T16:47:07;22.40;99.90
22540;DHT22;11436;50.860;4.334;2022-08-19T16:49:34;22.50;99.90
22540;DHT22;11436;50.860;4.334;2022-08-19T16:52:00;22.30;99.90
22540;DHT22;11436;50.860;4.334;2022-08-19T16:54:27;22.20;99.90
22540;DHT22;11436;50.860;4.334;2022-08-19T16:56:54;22.20;99.90
22540;DHT22;11436;50.860;4.334;2022-08-19T16:59:21;22.50;99.90
22540;DHT22;11436;50.860;4.334;2022-08-19T17:01:49;22.30;99.90
22540;DHT22;11436;50.860;4.334;2022-08-19T17:04:16;22.20;99.90
22540;DHT22;11436;50.860;4.334;2022-08-19T17:06:44;22.30;99.90
22540;DHT22;11436;50.860;4.334;2022-08-19T17:09:10;22.50;99.90
22540;DHT22;11436;50.860;4.334;2022-08-19T17:11:36;22.70;99.90
22540;DHT22;11436;50.860;4.334;2022-08-19T17:14:03;22.80;99.90
22540;DHT22;11436;50.860;4.334;2022-08-19T17:16:32;22.90;99.90
22540;DHT22;11436;50.860;4.334;2022-08-19T17:19:01;22.90;99.90
22540;DHT22;11436;50.860;4.334;2022-08-19T17:21:31;22.90;99.90
22540;DHT22;11436;50.860;4.334;2022-08-19T17:23:59;22.90;99.90
22540;DHT22;11436;50.860;4.334;2022-08-19T17:26:29;23.00;99.90
22540;DHT22;11436;50.860;4.334;2022-08-19T17:28:56;22.90;99.90
22540;DHT22;11436;50.860;4.334;2022-08-19T17:31:28;22.90;99.90
22540;DHT22;11436;50.860;4.334;2022-08-19T18:29:58;22.20;99.90
22540;DHT22;11436;50.860;4.334;2022-08-19T18:32:25;22.10;99.90
22540;DHT22;11436;50.860;4.334;2022-08-19T18:34:52;22.10;99.90
22540;DHT22;11436;50.860;4.334;2022-08-19T18:37:18;22.00;99.90
22540;DHT22;11436;50.860;4.334;2022-08-19T18:39:44;22.00;99.90
22540;DHT22;11436;50.860;4.334;2022-08-19T18:42:28;22.10;99.90
22540;DHT22;11436;50.860;4.334;2022-08-19T18:45:13;22.10;99.90
22540;DHT22;11436;50.860;4.334;2022-08-19T18:47:57;22.10;99.90
22540;DHT22;11436;50.860;4.334;2022-08-19T18:50:42;22.00;99.90
22540;DHT22;11436;50.860;4.334;2022-08-19T18:53:09;22.00;99.90
22540;DHT22;11436;50.860;4.334;2022-08-19T18:55:35;21.80;99.90
22540;DHT22;11436;50.860;4.334;2022-08-19T18:58:03;21.80;99.90
22540;DHT22;11436;50.860;4.334;2022-08-19T19:00:29;21.80;99.90
22540;DHT22;11436;50.860;4.334;2022-08-19T19:02:55;21.70;99.90
22540;DHT22;11436;50.860;4.334;2022-08-19T19:05:21;21.60;99.90
22540;DHT22;11436;50.860;4.334;2022-08-19T19:07:48;21.40;99.90
22540;DHT22;11436;50.860;4.334;2022-08-19T19:10:15;21.50;99.90
22540;DHT22;11436;50.860;4.334;2022-08-19T19:12:42;21.50;99.90
22540;DHT22;11436;50.860;4.334;2022-08-19T19:15:10;21.50;99.90
22540;DHT22;11436;50.860;4.334;2022-08-19T19:17:37;21.50;99.90
22540;DHT22;11436;50.860;4.334;2022-08-19T19:20:04;21.40;99.90
22540;DHT22;11436;50.860;4.334;2022-08-19T19:22:30;21.50;99.90
22540;DHT22;11436;50.860;4.334;2022-08-19T19:24:56;21.30;99.90
22540;DHT22;11436;50.860;4.334;2022-08-19T19:27:23;21.30;99.90
22540;DHT22;11436;50.860;4.334;2022-08-19T19:29:50;21.30;99.90
22540;DHT22;11436;50.860;4.334;2022-08-19T19:32:20;21.40;99.90
22540;DHT22;11436;50.860;4.334;2022-08-19T19:34:50;21.30;99.90
